KEF weather

Keflavik International Airport
Reykjavík, Southern Peninsula, Iceland

Public forecast

Using degrees Celsius for public forecast. Weather courtesy of forecast.io.

METAR (pilot weather report)

Retrieved 2019/03/23 21:00 UTC (2 hours ago):

BIKF 232100Z 13008KT 9999 VCSH FEW020CB SCT043 00/M00 Q0992

TAF (pilot weather forecast)

Retrieved 2019/03/23 21:28 UTC (1 hour ago):

TAF BIKF 231925Z 2321/2421 21020KT 9999 -SHRASN FEW010 SCT020CB BKN045 TX02/2403Z TNM01/2421Z TEMPO 2321/2406 2000 SHRASN BKN014CB BECMG 2402/2404 30024G34KT 9999 BECMG 2411/2413 30018KT NSW SCT018 BKN030